sensor_id;sensor_type;location;lat;lon;timestamp;temperature;humidity
28845;DHT22;15976;47.938;7.758;2023-12-07T00:00:05;6.40;77.10
28845;DHT22;15976;47.938;7.758;2023-12-07T00:02:32;6.40;77.20
28845;DHT22;15976;47.938;7.758;2023-12-07T00:04:59;6.40;77.30
28845;DHT22;15976;47.938;7.758;2023-12-07T00:07:26;6.40;77.30
28845;DHT22;15976;47.938;7.758;2023-12-07T00:09:53;6.50;77.20
28845;DHT22;15976;47.938;7.758;2023-12-07T00:12:20;6.40;77.00
28845;DHT22;15976;47.938;7.758;2023-12-07T00:14:48;6.30;76.80
28845;DHT22;15976;47.938;7.758;2023-12-07T00:17:15;6.20;77.10
28845;DHT22;15976;47.938;7.758;2023-12-07T00:19:42;6.10;77.40
28845;DHT22;15976;47.938;7.758;2023-12-07T00:22:09;6.10;77.60
28845;DHT22;15976;47.938;7.758;2023-12-07T00:24:37;6.00;77.70
28845;DHT22;15976;47.938;7.758;2023-12-07T00:27:03;6.00;77.60
28845;DHT22;15976;47.938;7.758;2023-12-07T00:29:32;5.90;77.60
28845;DHT22;15976;47.938;7.758;2023-12-07T00:31:59;5.80;77.80
28845;DHT22;15976;47.938;7.758;2023-12-07T00:34:26;5.80;77.90
28845;DHT22;15976;47.938;7.758;2023-12-07T00:36:53;5.70;77.90
28845;DHT22;15976;47.938;7.758;2023-12-07T00:39:20;5.50;78.10
28845;DHT22;15976;47.938;7.758;2023-12-07T00:41:48;5.50;78.20
28845;DHT22;15976;47.938;7.758;2023-12-07T00:44:15;5.40;78.40
28845;DHT22;15976;47.938;7.758;2023-12-07T00:46:42;5.40;78.70
28845;DHT22;15976;47.938;7.758;2023-12-07T00:49:09;5.30;78.70
28845;DHT22;15976;47.938;7.758;2023-12-07T00:51:36;5.30;78.70
28845;DHT22;15976;47.938;7.758;2023-12-07T00:54:03;5.30;78.60
28845;DHT22;15976;47.938;7.758;2023-12-07T00:56:30;5.10;78.40
28845;DHT22;15976;47.938;7.758;2023-12-07T00:58:57;5.10;78.50
28845;DHT22;15976;47.938;7.758;2023-12-07T01:01:24;5.00;78.60
28845;DHT22;15976;47.938;7.758;2023-12-07T01:03:51;5.00;78.80
28845;DHT22;15976;47.938;7.758;2023-12-07T01:06:18;5.00;79.00
28845;DHT22;15976;47.938;7.758;2023-12-07T01:08:45;5.00;79.10
28845;DHT22;15976;47.938;7.758;2023-12-07T01:11:12;5.00;79.10
28845;DHT22;15976;47.938;7.758;2023-12-07T01:13:39;5.00;79.10
28845;DHT22;15976;47.938;7.758;2023-12-07T01:16:07;5.00;79.20
28845;DHT22;15976;47.938;7.758;2023-12-07T01:18:33;5.00;79.10
28845;DHT22;15976;47.938;7.758;2023-12-07T01:21:01;5.00;79.00
28845;DHT22;15976;47.938;7.758;2023-12-07T01:23:28;5.00;79.00
28845;DHT22;15976;47.938;7.758;2023-12-07T01:25:55;4.90;79.00
28845;DHT22;15976;47.938;7.758;2023-12-07T01:28:22;4.90;79.20
28845;DHT22;15976;47.938;7.758;2023-12-07T01:30:49;4.90;79.20
28845;DHT22;15976;47.938;7.758;2023-12-07T01:33:16;4.80;79.10
28845;DHT22;15976;47.938;7.758;2023-12-07T01:35:43;4.90;79.00
28845;DHT22;15976;47.938;7.758;2023-12-07T01:38:10;4.80;78.70
28845;DHT22;15976;47.938;7.758;2023-12-07T01:40:37;4.60;78.90
28845;DHT22;15976;47.938;7.758;2023-12-07T01:43:04;4.50;79.20
28845;DHT22;15976;47.938;7.758;2023-12-07T01:45:31;4.40;79.50
28845;DHT22;15976;47.938;7.758;2023-12-07T01:47:58;4.40;79.80
28845;DHT22;15976;47.938;7.758;2023-12-07T01:50:27;4.40;80.20
28845;DHT22;15976;47.938;7.758;2023-12-07T01:52:59;4.40;80.20
28845;DHT22;15976;47.938;7.758;2023-12-07T01:55:28;4.40;80.30
28845;DHT22;15976;47.938;7.758;2023-12-07T01:57:57;4.40;80.20
28845;DHT22;15976;47.938;7.758;2023-12-07T02:00:26;4.40;80.20
28845;DHT22;15976;47.938;7.758;2023-12-07T02:02:54;4.40;80.20
28845;DHT22;15976;47.938;7.758;2023-12-07T02:05:22;4.40;80.20
28845;DHT22;15976;47.938;7.758;2023-12-07T02:07:49;4.40;80.40
28845;DHT22;15976;47.938;7.758;2023-12-07T02:10:17;4.40;80.60
28845;DHT22;15976;47.938;7.758;2023-12-07T02:12:47;4.40;80.40
28845;DHT22;15976;47.938;7.758;2023-12-07T02:15:14;4.50;80.50
28845;DHT22;15976;47.938;7.758;2023-12-07T02:20:39;4.40;80.40
28845;DHT22;15976;47.938;7.758;2023-12-07T02:23:11;4.40;80.40
28845;DHT22;15976;47.938;7.758;2023-12-07T02:25:48;4.40;80.50
28845;DHT22;15976;47.938;7.758;2023-12-07T02:28:18;4.40;80.50
28845;DHT22;15976;47.938;7.758;2023-12-07T02:30:45;4.40;80.20
28845;DHT22;15976;47.938;7.758;2023-12-07T02:33:12;4.40;80.20
28845;DHT22;15976;47.938;7.758;2023-12-07T02:35:40;4.40;80.20
28845;DHT22;15976;47.938;7.758;2023-12-07T02:38:08;4.40;80.10
28845;DHT22;15976;47.938;7.758;2023-12-07T02:40:56;4.40;79.80
28845;DHT22;15976;47.938;7.758;2023-12-07T02:43:24;4.30;79.80
28845;DHT22;15976;47.938;7.758;2023-12-07T02:45:51;4.20;80.00
28845;DHT22;15976;47.938;7.758;2023-12-07T02:48:20;4.20;79.80
28845;DHT22;15976;47.938;7.758;2023-12-07T02:50:48;4.20;79.70
28845;DHT22;15976;47.938;7.758;2023-12-07T02:53:15;4.20;79.70
28845;DHT22;15976;47.938;7.758;2023-12-07T02:55:42;4.20;79.60
28845;DHT22;15976;47.938;7.758;2023-12-07T02:58:09;4.20;79.70
28845;DHT22;15976;47.938;7.758;2023-12-07T03:00:36;4.10;79.60
28845;DHT22;15976;47.938;7.758;2023-12-07T03:03:03;4.10;79.50
28845;DHT22;15976;47.938;7.758;2023-12-07T03:11:58;4.00;79.20
28845;DHT22;15976;47.938;7.758;2023-12-07T03:14:25;3.90;79.60
28845;DHT22;15976;47.938;7.758;2023-12-07T03:16:52;3.90;79.80
28845;DHT22;15976;47.938;7.758;2023-12-07T03:19:19;3.80;79.50
28845;DHT22;15976;47.938;7.758;2023-12-07T03:21:46;3.80;79.60
28845;DHT22;15976;47.938;7.758;2023-12-07T03:24:13;3.80;79.70
28845;DHT22;15976;47.938;7.758;2023-12-07T03:26:40;3.80;79.60
28845;DHT22;15976;47.938;7.758;2023-12-07T03:29:07;3.80;79.50
28845;DHT22;15976;47.938;7.758;2023-12-07T03:31:34;3.70;79.10
28845;DHT22;15976;47.938;7.758;2023-12-07T03:34:01;3.60;79.10
28845;DHT22;15976;47.938;7.758;2023-12-07T03:36:32;3.60;79.20
28845;DHT22;15976;47.938;7.758;2023-12-07T03:39:00;3.60;79.30
28845;DHT22;15976;47.938;7.758;2023-12-07T03:41:27;3.60;79.40
28845;DHT22;15976;47.938;7.758;2023-12-07T03:43:55;3.60;79.40
28845;DHT22;15976;47.938;7.758;2023-12-07T03:46:22;3.60;79.20
28845;DHT22;15976;47.938;7.758;2023-12-07T03:48:49;3.50;79.20
28845;DHT22;15976;47.938;7.758;2023-12-07T03:51:16;3.50;79.20
28845;DHT22;15976;47.938;7.758;2023-12-07T03:53:43;3.50;79.40
28845;DHT22;15976;47.938;7.758;2023-12-07T03:56:10;3.50;79.20
28845;DHT22;15976;47.938;7.758;2023-12-07T03:58:38;3.40;79.20
28845;DHT22;15976;47.938;7.758;2023-12-07T04:01:05;3.40;79.20
28845;DHT22;15976;47.938;7.758;2023-12-07T04:03:32;3.40;79.20
28845;DHT22;15976;47.938;7.758;2023-12-07T04:05:59;3.40;78.90
28845;DHT22;15976;47.938;7.758;2023-12-07T04:08:27;3.40;78.80
28845;DHT22;15976;47.938;7.758;2023-12-07T04:10:54;3.40;78.70
28845;DHT22;15976;47.938;7.758;2023-12-07T04:13:21;3.40;78.60
28845;DHT22;15976;47.938;7.758;2023-12-07T04:15:48;3.40;78.50
28845;DHT22;15976;47.938;7.758;2023-12-07T04:18:15;3.30;78.50
28845;DHT22;15976;47.938;7.758;2023-12-07T04:20:42;3.30;78.70
28845;DHT22;15976;47.938;7.758;2023-12-07T04:23:09;3.30;78.70
28845;DHT22;15976;47.938;7.758;2023-12-07T04:25:37;3.30;78.40
28845;DHT22;15976;47.938;7.758;2023-12-07T04:28:04;3.30;78.50
28845;DHT22;15976;47.938;7.758;2023-12-07T04:30:31;3.30;78.40
28845;DHT22;15976;47.938;7.758;2023-12-07T04:32:58;3.20;78.40
28845;DHT22;15976;47.938;7.758;2023-12-07T04:35:25;3.20;78.50
28845;DHT22;15976;47.938;7.758;2023-12-07T04:37:52;3.20;78.80
28845;DHT22;15976;47.938;7.758;2023-12-07T04:40:19;3.20;78.70
28845;DHT22;15976;47.938;7.758;2023-12-07T04:42:46;3.20;78.50
28845;DHT22;15976;47.938;7.758;2023-12-07T04:45:13;3.20;78.30
28845;DHT22;15976;47.938;7.758;2023-12-07T04:47:40;3.20;78.30
28845;DHT22;15976;47.938;7.758;2023-12-07T04:50:08;3.20;78.30
28845;DHT22;15976;47.938;7.758;2023-12-07T04:52:36;3.20;78.30
28845;DHT22;15976;47.938;7.758;2023-12-07T04:55:04;3.10;78.40
28845;DHT22;15976;47.938;7.758;2023-12-07T04:57:34;3.10;78.60
28845;DHT22;15976;47.938;7.758;2023-12-07T05:00:02;3.10;78.50
28845;DHT22;15976;47.938;7.758;2023-12-07T05:02:33;3.10;78.40
28845;DHT22;15976;47.938;7.758;2023-12-07T05:05:00;3.10;78.20
28845;DHT22;15976;47.938;7.758;2023-12-07T05:07:27;3.00;78.00
28845;DHT22;15976;47.938;7.758;2023-12-07T05:09:53;3.00;78.10
28845;DHT22;15976;47.938;7.758;2023-12-07T05:12:20;3.00;77.90
28845;DHT22;15976;47.938;7.758;2023-12-07T05:14:48;2.90;77.90
28845;DHT22;15976;47.938;7.758;2023-12-07T05:17:15;3.00;78.00
28845;DHT22;15976;47.938;7.758;2023-12-07T05:19:43;3.00;78.10
28845;DHT22;15976;47.938;7.758;2023-12-07T05:22:10;2.90;78.10
28845;DHT22;15976;47.938;7.758;2023-12-07T05:24:37;3.00;78.20
28845;DHT22;15976;47.938;7.758;2023-12-07T05:27:04;3.00;78.10
28845;DHT22;15976;47.938;7.758;2023-12-07T05:29:32;2.90;78.10
28845;DHT22;15976;47.938;7.758;2023-12-07T05:31:58;2.90;78.20
28845;DHT22;15976;47.938;7.758;2023-12-07T05:34:25;2.90;78.40
28845;DHT22;15976;47.938;7.758;2023-12-07T05:36:52;2.80;78.40
28845;DHT22;15976;47.938;7.758;2023-12-07T05:39:19;2.80;78.50
28845;DHT22;15976;47.938;7.758;2023-12-07T05:41:47;2.80;78.20
28845;DHT22;15976;47.938;7.758;2023-12-07T05:44:15;2.70;78.40
28845;DHT22;15976;47.938;7.758;2023-12-07T05:46:49;2.70;78.70
28845;DHT22;15976;47.938;7.758;2023-12-07T05:49:16;2.70;78.80
28845;DHT22;15976;47.938;7.758;2023-12-07T05:51:43;2.70;79.10
28845;DHT22;15976;47.938;7.758;2023-12-07T05:54:10;2.70;78.70
28845;DHT22;15976;47.938;7.758;2023-12-07T05:56:37;2.70;78.70
28845;DHT22;15976;47.938;7.758;2023-12-07T05:59:05;2.70;78.40
28845;DHT22;15976;47.938;7.758;2023-12-07T06:01:32;2.60;78.50
28845;DHT22;15976;47.938;7.758;2023-12-07T06:04:00;2.60;78.40
28845;DHT22;15976;47.938;7.758;2023-12-07T06:06:27;2.60;78.50
28845;DHT22;15976;47.938;7.758;2023-12-07T06:08:54;2.60;78.50
28845;DHT22;15976;47.938;7.758;2023-12-07T06:11:21;2.60;78.60
28845;DHT22;15976;47.938;7.758;2023-12-07T06:13:48;2.60;78.80
28845;DHT22;15976;47.938;7.758;2023-12-07T06:16:15;2.60;78.80
28845;DHT22;15976;47.938;7.758;2023-12-07T06:18:44;2.60;79.00
28845;DHT22;15976;47.938;7.758;2023-12-07T06:21:14;2.60;79.10
28845;DHT22;15976;47.938;7.758;2023-12-07T06:23:41;2.60;78.80
28845;DHT22;15976;47.938;7.758;2023-12-07T06:26:08;2.60;78.80
28845;DHT22;15976;47.938;7.758;2023-12-07T06:28:35;2.60;78.70
28845;DHT22;15976;47.938;7.758;2023-12-07T06:31:06;2.60;78.60
28845;DHT22;15976;47.938;7.758;2023-12-07T06:33:34;2.60;78.70
28845;DHT22;15976;47.938;7.758;2023-12-07T06:36:02;2.60;78.90
28845;DHT22;15976;47.938;7.758;2023-12-07T06:38:30;2.50;78.90
28845;DHT22;15976;47.938;7.758;2023-12-07T06:40:57;2.50;79.00
28845;DHT22;15976;47.938;7.758;2023-12-07T06:43:24;2.50;79.20
28845;DHT22;15976;47.938;7.758;2023-12-07T06:45:52;2.50;79.30
28845;DHT22;15976;47.938;7.758;2023-12-07T06:48:20;2.50;79.40
28845;DHT22;15976;47.938;7.758;2023-12-07T06:50:47;2.50;79.40
28845;DHT22;15976;47.938;7.758;2023-12-07T06:53:14;2.50;79.60
28845;DHT22;15976;47.938;7.758;2023-12-07T06:55:42;2.50;79.80
28845;DHT22;15976;47.938;7.758;2023-12-07T06:58:11;2.50;79.80
28845;DHT22;15976;47.938;7.758;2023-12-07T07:00:39;2.50;79.80
28845;DHT22;15976;47.938;7.758;2023-12-07T07:03:06;2.50;80.00
28845;DHT22;15976;47.938;7.758;2023-12-07T07:05:33;2.60;80.00
28845;DHT22;15976;47.938;7.758;2023-12-07T07:08:01;2.60;80.00
28845;DHT22;15976;47.938;7.758;2023-12-07T07:10:28;2.60;80.00
28845;DHT22;15976;47.938;7.758;2023-12-07T07:12:58;2.60;80.00
28845;DHT22;15976;47.938;7.758;2023-12-07T07:15:26;2.50;80.00
28845;DHT22;15976;47.938;7.758;2023-12-07T07:17:53;2.50;80.10
28845;DHT22;15976;47.938;7.758;2023-12-07T07:20:20;2.50;80.00
28845;DHT22;15976;47.938;7.758;2023-12-07T07:22:49;2.60;79.90
28845;DHT22;15976;47.938;7.758;2023-12-07T07:25:16;2.50;79.50
28845;DHT22;15976;47.938;7.758;2023-12-07T07:27:46;2.50;79.60
28845;DHT22;15976;47.938;7.758;2023-12-07T07:33:20;2.50;80.00
28845;DHT22;15976;47.938;7.758;2023-12-07T07:35:48;2.50;80.00
28845;DHT22;15976;47.938;7.758;2023-12-07T07:38:18;2.50;80.10
28845;DHT22;15976;47.938;7.758;2023-12-07T07:40:45;2.50;80.00
28845;DHT22;15976;47.938;7.758;2023-12-07T07:43:14;2.50;79.90
28845;DHT22;15976;47.938;7.758;2023-12-07T07:45:42;2.50;79.90
28845;DHT22;15976;47.938;7.758;2023-12-07T07:48:09;2.60;79.90
28845;DHT22;15976;47.938;7.758;2023-12-07T07:50:36;2.60;79.80
28845;DHT22;15976;47.938;7.758;2023-12-07T07:53:03;2.60;79.60
28845;DHT22;15976;47.938;7.758;2023-12-07T07:55:31;2.70;79.50
28845;DHT22;15976;47.938;7.758;2023-12-07T07:57:58;2.70;79.20
28845;DHT22;15976;47.938;7.758;2023-12-07T08:00:26;2.70;79.20
28845;DHT22;15976;47.938;7.758;2023-12-07T08:02:53;2.70;79.20
28845;DHT22;15976;47.938;7.758;2023-12-07T08:05:20;2.80;79.20
28845;DHT22;15976;47.938;7.758;2023-12-07T08:07:47;2.80;79.20
28845;DHT22;15976;47.938;7.758;2023-12-07T08:10:14;2.80;79.10
28845;DHT22;15976;47.938;7.758;2023-12-07T08:12:43;2.90;78.90
28845;DHT22;15976;47.938;7.758;2023-12-07T08:15:10;2.90;78.80
28845;DHT22;15976;47.938;7.758;2023-12-07T08:17:39;2.90;78.80
28845;DHT22;15976;47.938;7.758;2023-12-07T08:20:11;2.90;78.80
28845;DHT22;15976;47.938;7.758;2023-12-07T08:22:40;2.90;78.90
28845;DHT22;15976;47.938;7.758;2023-12-07T08:25:08;2.90;79.00
28845;DHT22;15976;47.938;7.758;2023-12-07T08:27:38;2.90;79.30
28845;DHT22;15976;47.938;7.758;2023-12-07T08:30:07;3.10;79.30
28845;DHT22;15976;47.938;7.758;2023-12-07T08:32:37;3.30;78.70
28845;DHT22;15976;47.938;7.758;2023-12-07T08:35:05;3.40;77.90
28845;DHT22;15976;47.938;7.758;2023-12-07T08:37:33;3.50;78.10
28845;DHT22;15976;47.938;7.758;2023-12-07T08:40:01;3.70;78.20
28845;DHT22;15976;47.938;7.758;2023-12-07T08:42:29;3.80;78.10
28845;DHT22;15976;47.938;7.758;2023-12-07T08:49:17;4.20;78.20
28845;DHT22;15976;47.938;7.758;2023-12-07T08:51:45;4.30;77.80
28845;DHT22;15976;47.938;7.758;2023-12-07T08:54:32;4.40;78.00
28845;DHT22;15976;47.938;7.758;2023-12-07T08:57:00;4.50;78.00
28845;DHT22;15976;47.938;7.758;2023-12-07T08:59:27;4.60;78.00
28845;DHT22;15976;47.938;7.758;2023-12-07T09:05:55;4.70;78.00
28845;DHT22;15976;47.938;7.758;2023-12-07T09:08:23;4.80;78.00
28845;DHT22;15976;47.938;7.758;2023-12-07T09:10:51;4.80;78.10
28845;DHT22;15976;47.938;7.758;2023-12-07T09:13:19;4.80;78.00
28845;DHT22;15976;47.938;7.758;2023-12-07T09:15:47;4.80;77.90
28845;DHT22;15976;47.938;7.758;2023-12-07T09:18:17;4.90;78.20
28845;DHT22;15976;47.938;7.758;2023-12-07T09:20:45;5.00;77.90
28845;DHT22;15976;47.938;7.758;2023-12-07T09:44:20;5.50;77.30
28845;DHT22;15976;47.938;7.758;2023-12-07T09:46:50;5.40;76.60
28845;DHT22;15976;47.938;7.758;2023-12-07T09:49:18;5.50;76.80
28845;DHT22;15976;47.938;7.758;2023-12-07T09:51:48;5.60;76.70
28845;DHT22;15976;47.938;7.758;2023-12-07T10:02:06;5.70;75.50
28845;DHT22;15976;47.938;7.758;2023-12-07T10:05:03;5.70;75.40
28845;DHT22;15976;47.938;7.758;2023-12-07T10:07:49;5.70;75.10
28845;DHT22;15976;47.938;7.758;2023-12-07T10:13:41;5.80;75.30
28845;DHT22;15976;47.938;7.758;2023-12-07T10:16:16;5.90;75.20
28845;DHT22;15976;47.938;7.758;2023-12-07T10:18:46;5.90;74.90
28845;DHT22;15976;47.938;7.758;2023-12-07T10:21:18;6.00;74.80
28845;DHT22;15976;47.938;7.758;2023-12-07T10:24:01;5.90;74.50
28845;DHT22;15976;47.938;7.758;2023-12-07T10:27:03;5.80;74.80
28845;DHT22;15976;47.938;7.758;2023-12-07T10:32:55;5.80;74.80
28845;DHT22;15976;47.938;7.758;2023-12-07T10:35:25;5.80;75.00
28845;DHT22;15976;47.938;7.758;2023-12-07T10:37:57;5.90;75.00
28845;DHT22;15976;47.938;7.758;2023-12-07T10:40:31;6.00;74.80
28845;DHT22;15976;47.938;7.758;2023-12-07T10:42:58;6.00;74.20
28845;DHT22;15976;47.938;7.758;2023-12-07T10:45:30;6.00;73.90
28845;DHT22;15976;47.938;7.758;2023-12-07T10:48:10;5.90;73.70
28845;DHT22;15976;47.938;7.758;2023-12-07T10:50:46;5.90;73.90
28845;DHT22;15976;47.938;7.758;2023-12-07T10:53:30;5.90;74.00
28845;DHT22;15976;47.938;7.758;2023-12-07T10:56:39;6.00;74.10
28845;DHT22;15976;47.938;7.758;2023-12-07T10:59:12;6.10;73.90
28845;DHT22;15976;47.938;7.758;2023-12-07T11:02:03;6.10;73.80
28845;DHT22;15976;47.938;7.758;2023-12-07T11:09:13;6.30;73.50
28845;DHT22;15976;47.938;7.758;2023-12-07T11:11:57;6.40;73.10
28845;DHT22;15976;47.938;7.758;2023-12-07T11:14:30;6.50;72.80
28845;DHT22;15976;47.938;7.758;2023-12-07T11:17:03;6.60;72.80
28845;DHT22;15976;47.938;7.758;2023-12-07T11:22:11;6.60;72.40
28845;DHT22;15976;47.938;7.758;2023-12-07T11:24:53;6.50;72.50
28845;DHT22;15976;47.938;7.758;2023-12-07T11:27:24;6.60;72.60
28845;DHT22;15976;47.938;7.758;2023-12-07T11:29:53;6.50;72.40
28845;DHT22;15976;47.938;7.758;2023-12-07T11:32:21;6.60;72.60
28845;DHT22;15976;47.938;7.758;2023-12-07T11:35:02;6.60;72.80
28845;DHT22;15976;47.938;7.758;2023-12-07T11:40:40;6.60;72.30
28845;DHT22;15976;47.938;7.758;2023-12-07T11:46:14;6.60;71.90
28845;DHT22;15976;47.938;7.758;2023-12-07T11:48:52;6.60;72.10
28845;DHT22;15976;47.938;7.758;2023-12-07T11:51:29;6.60;72.00
28845;DHT22;15976;47.938;7.758;2023-12-07T11:54:07;6.60;72.00
28845;DHT22;15976;47.938;7.758;2023-12-07T11:56:57;6.60;72.00
28845;DHT22;15976;47.938;7.758;2023-12-07T11:59:25;6.60;71.90
28845;DHT22;15976;47.938;7.758;2023-12-07T12:02:00;6.60;72.10
28845;DHT22;15976;47.938;7.758;2023-12-07T12:04:31;6.60;71.90
28845;DHT22;15976;47.938;7.758;2023-12-07T12:07:00;6.50;71.80
28845;DHT22;15976;47.938;7.758;2023-12-07T12:09:28;6.50;72.00
28845;DHT22;15976;47.938;7.758;2023-12-07T12:12:00;6.50;72.00
28845;DHT22;15976;47.938;7.758;2023-12-07T12:14:28;6.40;72.10
28845;DHT22;15976;47.938;7.758;2023-12-07T12:16:57;6.40;72.40
28845;DHT22;15976;47.938;7.758;2023-12-07T12:19:25;6.30;72.40
28845;DHT22;15976;47.938;7.758;2023-12-07T12:22:03;6.40;72.70
28845;DHT22;15976;47.938;7.758;2023-12-07T12:24:38;6.30;72.80
28845;DHT22;15976;47.938;7.758;2023-12-07T12:27:07;6.20;72.90
28845;DHT22;15976;47.938;7.758;2023-12-07T12:29:36;6.30;73.20
28845;DHT22;15976;47.938;7.758;2023-12-07T12:32:05;6.20;73.20
28845;DHT22;15976;47.938;7.758;2023-12-07T12:34:44;6.20;73.30
28845;DHT22;15976;47.938;7.758;2023-12-07T12:37:22;6.10;73.50
28845;DHT22;15976;47.938;7.758;2023-12-07T12:39:53;6.10;73.50
28845;DHT22;15976;47.938;7.758;2023-12-07T12:46:15;6.00;73.90
28845;DHT22;15976;47.938;7.758;2023-12-07T12:48:56;6.00;74.00
28845;DHT22;15976;47.938;7.758;2023-12-07T12:51:29;6.00;74.20
28845;DHT22;15976;47.938;7.758;2023-12-07T12:53:59;6.10;74.40
28845;DHT22;15976;47.938;7.758;2023-12-07T12:56:27;6.10;74.40
28845;DHT22;15976;47.938;7.758;2023-12-07T12:58:55;6.20;74.30
28845;DHT22;15976;47.938;7.758;2023-12-07T13:01:32;6.20;74.20
28845;DHT22;15976;47.938;7.758;2023-12-07T13:04:00;6.20;74.00
28845;DHT22;15976;47.938;7.758;2023-12-07T13:06:27;6.20;73.70
28845;DHT22;15976;47.938;7.758;2023-12-07T13:08:55;6.10;73.70
28845;DHT22;15976;47.938;7.758;2023-12-07T13:11:24;6.10;74.00
28845;DHT22;15976;47.938;7.758;2023-12-07T13:13:51;6.10;74.30
28845;DHT22;15976;47.938;7.758;2023-12-07T13:16:19;6.10;74.50
28845;DHT22;15976;47.938;7.758;2023-12-07T13:18:49;6.10;74.30
28845;DHT22;15976;47.938;7.758;2023-12-07T13:21:20;6.10;74.30
28845;DHT22;15976;47.938;7.758;2023-12-07T13:24:00;6.20;74.30
28845;DHT22;15976;47.938;7.758;2023-12-07T13:26:29;6.30;74.10
28845;DHT22;15976;47.938;7.758;2023-12-07T13:28:56;6.30;74.00
28845;DHT22;15976;47.938;7.758;2023-12-07T13:31:24;6.40;73.90
28845;DHT22;15976;47.938;7.758;2023-12-07T13:33:53;6.40;73.80
28845;DHT22;15976;47.938;7.758;2023-12-07T13:36:27;6.40;73.80
28845;DHT22;15976;47.938;7.758;2023-12-07T13:38:56;6.40;73.90
28845;DHT22;15976;47.938;7.758;2023-12-07T13:41:24;6.50;73.80
28845;DHT22;15976;47.938;7.758;2023-12-07T13:43:52;6.50;73.80
28845;DHT22;15976;47.938;7.758;2023-12-07T13:46:19;6.60;73.80
28845;DHT22;15976;47.938;7.758;2023-12-07T13:48:48;6.60;73.50
28845;DHT22;15976;47.938;7.758;2023-12-07T13:51:17;6.60;73.30
28845;DHT22;15976;47.938;7.758;2023-12-07T13:53:45;6.50;73.20
28845;DHT22;15976;47.938;7.758;2023-12-07T13:56:13;6.50;73.20
28845;DHT22;15976;47.938;7.758;2023-12-07T13:58:40;6.50;73.20
28845;DHT22;15976;47.938;7.758;2023-12-07T14:01:09;6.40;73.40
28845;DHT22;15976;47.938;7.758;2023-12-07T14:03:38;6.40;73.60
28845;DHT22;15976;47.938;7.758;2023-12-07T14:06:06;6.30;73.90
28845;DHT22;15976;47.938;7.758;2023-12-07T14:08:47;6.30;73.80
28845;DHT22;15976;47.938;7.758;2023-12-07T14:11:17;6.30;73.80
28845;DHT22;15976;47.938;7.758;2023-12-07T14:13:45;6.30;73.70
28845;DHT22;15976;47.938;7.758;2023-12-07T14:16:14;6.30;73.90
28845;DHT22;15976;47.938;7.758;2023-12-07T14:18:53;6.30;73.90
28845;DHT22;15976;47.938;7.758;2023-12-07T14:21:40;6.30;74.00
28845;DHT22;15976;47.938;7.758;2023-12-07T14:24:22;6.30;73.80
28845;DHT22;15976;47.938;7.758;2023-12-07T14:26:57;6.30;73.60
28845;DHT22;15976;47.938;7.758;2023-12-07T14:29:34;6.40;73.60
28845;DHT22;15976;47.938;7.758;2023-12-07T14:32:11;6.30;73.70
28845;DHT22;15976;47.938;7.758;2023-12-07T14:34:52;6.40;73.80
28845;DHT22;15976;47.938;7.758;2023-12-07T14:37:38;6.30;73.80
28845;DHT22;15976;47.938;7.758;2023-12-07T14:40:18;6.30;73.70
28845;DHT22;15976;47.938;7.758;2023-12-07T14:42:51;6.20;73.90
28845;DHT22;15976;47.938;7.758;2023-12-07T14:45:21;6.20;74.40
28845;DHT22;15976;47.938;7.758;2023-12-07T14:48:00;6.10;74.50
28845;DHT22;15976;47.938;7.758;2023-12-07T14:50:29;6.10;74.70
28845;DHT22;15976;47.938;7.758;2023-12-07T14:53:01;6.10;74.80
28845;DHT22;15976;47.938;7.758;2023-12-07T14:55:43;6.00;74.80
28845;DHT22;15976;47.938;7.758;2023-12-07T14:58:16;6.00;74.90
28845;DHT22;15976;47.938;7.758;2023-12-07T15:00:48;6.00;75.00
28845;DHT22;15976;47.938;7.758;2023-12-07T15:03:21;6.00;75.00
28845;DHT22;15976;47.938;7.758;2023-12-07T15:05:55;5.90;75.00
28845;DHT22;15976;47.938;7.758;2023-12-07T15:08:24;5.90;76.00
28845;DHT22;15976;47.938;7.758;2023-12-07T15:10:55;5.90;75.30
28845;DHT22;15976;47.938;7.758;2023-12-07T15:13:29;5.90;76.10
28845;DHT22;15976;47.938;7.758;2023-12-07T15:15:56;5.80;75.40
28845;DHT22;15976;47.938;7.758;2023-12-07T15:18:24;5.80;75.60
28845;DHT22;15976;47.938;7.758;2023-12-07T15:20:53;5.80;75.70
28845;DHT22;15976;47.938;7.758;2023-12-07T15:23:20;5.70;75.50
28845;DHT22;15976;47.938;7.758;2023-12-07T15:25:48;5.60;75.70
28845;DHT22;15976;47.938;7.758;2023-12-07T15:28:15;5.60;76.00
28845;DHT22;15976;47.938;7.758;2023-12-07T15:30:43;5.50;76.10
28845;DHT22;15976;47.938;7.758;2023-12-07T15:33:11;5.50;76.00
28845;DHT22;15976;47.938;7.758;2023-12-07T15:35:40;5.40;76.10
28845;DHT22;15976;47.938;7.758;2023-12-07T15:38:07;5.40;76.30
28845;DHT22;15976;47.938;7.758;2023-12-07T15:40:37;5.30;76.10
28845;DHT22;15976;47.938;7.758;2023-12-07T15:43:05;5.10;76.10
28845;DHT22;15976;47.938;7.758;2023-12-07T15:45:32;5.00;76.70
28845;DHT22;15976;47.938;7.758;2023-12-07T15:47:59;5.00;77.20
28845;DHT22;15976;47.938;7.758;2023-12-07T15:50:27;5.00;77.30
28845;DHT22;15976;47.938;7.758;2023-12-07T15:52:54;5.00;77.30
28845;DHT22;15976;47.938;7.758;2023-12-07T15:55:21;5.00;77.10
28845;DHT22;15976;47.938;7.758;2023-12-07T15:57:49;4.90;77.10
28845;DHT22;15976;47.938;7.758;2023-12-07T16:00:16;4.90;77.50
28845;DHT22;15976;47.938;7.758;2023-12-07T16:02:43;4.90;77.80
28845;DHT22;15976;47.938;7.758;2023-12-07T16:05:11;4.90;77.70
28845;DHT22;15976;47.938;7.758;2023-12-07T16:07:38;4.90;77.70
28845;DHT22;15976;47.938;7.758;2023-12-07T16:10:07;4.80;77.60
28845;DHT22;15976;47.938;7.758;2023-12-07T16:12:38;4.80;77.70
28845;DHT22;15976;47.938;7.758;2023-12-07T16:15:06;4.80;77.70
28845;DHT22;15976;47.938;7.758;2023-12-07T16:17:34;4.70;77.60
28845;DHT22;15976;47.938;7.758;2023-12-07T16:20:02;4.70;77.80
28845;DHT22;15976;47.938;7.758;2023-12-07T16:22:30;4.60;77.90
28845;DHT22;15976;47.938;7.758;2023-12-07T16:24:57;4.50;78.00
28845;DHT22;15976;47.938;7.758;2023-12-07T16:27:26;4.50;78.00
28845;DHT22;15976;47.938;7.758;2023-12-07T16:29:54;4.40;77.90
28845;DHT22;15976;47.938;7.758;2023-12-07T16:32:22;4.40;78.00
28845;DHT22;15976;47.938;7.758;2023-12-07T16:34:49;4.40;78.00
28845;DHT22;15976;47.938;7.758;2023-12-07T16:37:17;4.40;78.10
28845;DHT22;15976;47.938;7.758;2023-12-07T16:39:44;4.30;78.20
28845;DHT22;15976;47.938;7.758;2023-12-07T16:42:11;4.30;78.20
28845;DHT22;15976;47.938;7.758;2023-12-07T16:44:39;4.20;78.30
28845;DHT22;15976;47.938;7.758;2023-12-07T16:47:08;4.20;79.10
28845;DHT22;15976;47.938;7.758;2023-12-07T16:49:35;4.20;78.40
28845;DHT22;15976;47.938;7.758;2023-12-07T16:52:33;4.20;78.40
28845;DHT22;15976;47.938;7.758;2023-12-07T16:55:18;4.20;78.30
28845;DHT22;15976;47.938;7.758;2023-12-07T16:57:45;4.20;78.40
28845;DHT22;15976;47.938;7.758;2023-12-07T17:00:13;4.10;78.30
28845;DHT22;15976;47.938;7.758;2023-12-07T17:02:41;4.10;78.40
28845;DHT22;15976;47.938;7.758;2023-12-07T17:05:08;4.10;78.40
28845;DHT22;15976;47.938;7.758;2023-12-07T17:07:35;4.10;78.60
28845;DHT22;15976;47.938;7.758;2023-12-07T17:10:03;4.10;78.60
28845;DHT22;15976;47.938;7.758;2023-12-07T17:16:01;4.10;78.50